Time;durP1;ratioP1;P1;durP2;ratioP2;P2;SDS_P1;SDS_P2;PMS_P1;PMS_P2;Temp;Humidity;BMP_temperature;BMP_pressure;BME280_temperature;BME280_humidity;BME280_pressure;Samples;Min_cycle;Max_cycle;Signal;HPM_P1;HPM_P2
2022/04/03 07:34:51;;;;;;;6.25;4.10;;;;;;;11.99;100.00;99234.97;5067239;28;20878;-66
2022/04/03 07:37:17;;;;;;;6.90;3.90;;;;;;;12.23;100.00;99237.28;5068011;28;20044;-66
2022/04/03 07:39:43;;;;;;;8.65;4.53;;;;;;;13.20;100.00;99244.41;5067856;28;20029;-66
2022/04/03 07:42:08;;;;;;;7.82;5.50;;;;;;;13.29;100.00;99251.59;5066317;28;20128;-66
2022/04/03 07:44:34;;;;;;;9.30;5.35;;;;;;;14.02;100.00;99220.47;5067562;28;20553;-66
2022/04/03 07:47:00;;;;;;;8.10;4.80;;;;;;;13.66;100.00;99176.47;5067447;28;20479;-67
2022/04/03 07:49:25;;;;;;;7.38;3.88;;;;;;;14.00;100.00;99252.13;5067078;28;20385;-66
2022/04/03 07:51:51;;;;;;;4.55;2.70;;;;;;;14.25;100.00;99255.00;5067740;28;20025;-65
2022/04/03 07:54:17;;;;;;;11.30;2.65;;;;;;;14.59;100.00;99253.09;5067612;28;20028;-67
2022/04/03 07:56:42;;;;;;;5.68;1.80;;;;;;;14.07;100.00;99236.38;5067264;28;20032;-65
2022/04/03 07:59:07;;;;;;;3.00;0.95;;;;;;;14.09;86.55;99232.00;5066138;28;20398;-66
2022/04/03 08:01:33;;;;;;;2.33;0.80;;;;;;;15.22;81.09;99269.06;5067485;28;20024;-66
2022/04/03 08:03:59;;;;;;;1.90;0.98;;;;;;;15.31;75.05;99268.53;5067074;28;20487;-66
2022/04/03 08:06:25;;;;;;;4.88;1.30;;;;;;;16.08;72.14;99252.78;5066850;28;20028;-66
2022/04/03 08:08:50;;;;;;;6.40;1.00;;;;;;;15.86;67.16;99230.22;5067385;28;20147;-65
2022/04/03 08:11:16;;;;;;;6.35;1.00;;;;;;;15.71;70.15;99222.66;5066817;28;20029;-65
2022/04/03 08:13:43;;;;;;;2.05;0.98;;;;;;;15.00;64.29;99216.63;5065859;28;20025;-64
2022/04/03 08:16:08;;;;;;;1.83;0.90;;;;;;;15.34;63.96;99263.25;5067001;28;20040;-65
2022/04/03 08:18:33;;;;;;;2.13;0.80;;;;;;;14.76;64.12;99226.56;5066100;28;20029;-65
2022/04/03 08:20:59;;;;;;;10.57;1.85;;;;;;;14.81;63.60;99200.72;5066674;28;20035;-66
2022/04/03 08:23:24;;;;;;;3.33;0.90;;;;;;;14.81;63.47;99237.38;5066243;28;20032;-66
2022/04/03 08:25:51;;;;;;;1.50;0.85;;;;;;;15.15;64.86;99267.78;5066821;28;20100;-66
2022/04/03 08:28:17;;;;;;;1.38;0.68;;;;;;;15.34;65.22;99247.88;5067081;28;20050;-65
2022/04/03 08:30:42;;;;;;;3.63;0.88;;;;;;;14.70;64.67;99209.00;5066835;28;20461;-65
2022/04/03 08:33:09;;;;;;;7.20;1.33;;;;;;;15.53;64.41;99263.00;5065990;28;20117;-65
2022/04/03 08:35:40;;;;;;;2.80;1.40;;;;;;;14.84;69.91;99246.59;5066671;28;20487;-65
2022/04/03 08:38:06;;;;;;;3.65;2.40;;;;;;;14.52;74.47;99243.28;5066471;28;20042;-65
2022/04/03 08:40:33;;;;;;;3.15;1.23;;;;;;;13.69;81.82;99296.34;5065584;28;20463;-66
2022/04/03 08:43:00;;;;;;;2.63;1.30;;;;;;;13.67;87.93;99291.31;5066027;28;20056;-65
2022/04/03 08:45:27;;;;;;;3.78;2.28;;;;;;;13.01;86.21;99206.19;5057034;28;20047;-64
2022/04/03 08:47:58;;;;;;;3.50;1.60;;;;;;;13.36;85.58;99244.44;5052283;28;20104;-64
2022/04/03 08:50:27;;;;;;;2.85;0.90;;;;;;;13.53;85.70;99288.66;5041891;28;20454;-65
2022/04/03 08:52:54;;;;;;;3.20;1.33;;;;;;;14.85;76.91;99290.03;5037380;28;20041;-64
2022/04/03 08:55:21;;;;;;;2.47;1.10;;;;;;;14.74;73.61;99246.28;5031942;28;20030;-64
2022/04/03 08:57:47;;;;;;;2.78;1.15;;;;;;;15.95;69.63;99275.78;5033355;28;20037;-64
2022/04/03 09:00:13;;;;;;;2.35;1.30;;;;;;;16.80;65.33;99267.84;5032766;28;20503;-65
2022/04/03 09:02:41;;;;;;;3.95;1.50;;;;;;;16.46;64.93;99220.41;5031951;28;20065;-65
2022/04/03 09:05:07;;;;;;;2.90;0.98;;;;;;;17.20;63.66;99270.28;5032978;28;20056;-64
2022/04/03 09:07:32;;;;;;;2.38;1.20;;;;;;;17.51;62.18;99268.28;5033047;28;20529;-64
2022/04/03 09:10:05;;;;;;;1.83;1.20;;;;;;;17.19;58.72;99267.81;5042371;28;20063;-64
2022/04/03 09:12:31;;;;;;;1.50;0.80;;;;;;;16.53;59.78;99255.06;5051209;28;20087;-64
2022/04/03 09:14:57;;;;;;;1.63;0.90;;;;;;;15.91;61.14;99283.75;5052103;28;20495;-64
2022/04/03 09:17:42;;;;;;;1.23;0.90;;;;;;;16.09;60.91;99270.63;5053146;28;20033;-64
2022/04/03 09:20:09;;;;;;;1.92;1.00;;;;;;;16.39;61.07;99281.56;5052296;28;20036;-63
2022/04/03 09:22:37;;;;;;;2.92;1.80;;;;;;;16.49;57.63;99281.81;5051312;28;20426;-63
2022/04/03 09:25:07;;;;;;;1.15;0.60;;;;;;;17.71;51.90;99270.28;5044299;28;20037;-64
2022/04/03 09:27:34;;;;;;;1.88;0.50;;;;;;;18.18;50.50;99258.34;5032124;28;20034;-63
2022/04/03 09:30:03;;;;;;;2.05;0.80;;;;;;;18.29;49.80;99231.03;5032683;28;20040;-64
2022/04/03 09:32:28;;;;;;;2.28;1.00;;;;;;;17.26;48.59;99227.94;5032199;28;20033;-64
2022/04/03 09:34:57;;;;;;;1.88;0.90;;;;;;;17.42;48.78;99273.97;5032514;28;20029;-64
2022/04/03 09:37:23;;;;;;;2.60;1.48;;;;;;;16.77;50.23;99247.50;5032286;28;20123;-64
2022/04/03 09:39:49;;;;;;;2.45;1.00;;;;;;;17.11;48.01;99250.31;5031756;28;20099;-65
2022/04/03 09:42:15;;;;;;;1.98;0.90;;;;;;;17.86;46.74;99279.53;5031897;28;20569;-64
2022/04/03 09:44:46;;;;;;;27.65;3.22;;;;;;;17.31;47.12;99277.28;5064231;28;20026;-64
2022/04/03 09:47:14;;;;;;;6.78;0.68;;;;;;;16.45;48.65;99291.44;5032093;28;20098;-64
2022/04/03 09:50:00;;;;;;;2.00;0.57;;;;;;;17.37;51.68;99305.16;5050854;28;20063;-64
2022/04/03 09:52:33;;;;;;;369.13;29.05;;;;;;;17.49;51.03;99195.59;5051397;28;20033;-64
2022/04/03 09:54:59;;;;;;;5.35;1.00;;;;;;;16.22;53.85;99268.16;5050621;28;20036;-64
2022/04/03 09:57:25;;;;;;;2.95;0.82;;;;;;;15.87;55.19;99272.03;5050107;28;20032;-64
2022/04/03 09:59:54;;;;;;;83.80;5.88;;;;;;;17.86;54.39;99310.41;5040087;28;20376;-64
2022/04/03 10:02:24;;;;;;;5.57;0.98;;;;;;;16.76;53.24;99226.16;5038435;28;20040;-63
2022/04/03 10:04:51;;;;;;;3.92;1.10;;;;;;;17.23;52.22;99303.47;5050326;28;20040;-64
2022/04/03 10:07:17;;;;;;;2.25;0.80;;;;;;;16.84;54.14;99277.00;5039255;28;20030;-64
2022/04/03 10:09:47;;;;;;;3.60;1.10;;;;;;;17.14;54.72;99314.34;5031612;28;20066;-64
2022/04/03 10:12:18;;;;;;;4.43;1.20;;;;;;;16.08;54.16;99276.69;5031895;28;20044;-64
2022/04/03 10:14:51;;;;;;;3.08;1.20;;;;;;;16.72;53.84;99273.47;5031534;28;20064;-64
2022/04/03 10:17:18;;;;;;;4.25;1.23;;;;;;;15.79;54.54;99274.25;5047503;28;20407;-65
2022/04/03 10:19:45;;;;;;;1.55;1.00;;;;;;;15.80;56.51;99322.88;5049575;28;20029;-64
2022/04/03 10:22:21;;;;;;;8.77;2.13;;;;;;;15.92;54.94;99334.97;5051334;28;20115;-64
2022/04/03 10:24:51;;;;;;;1.40;0.80;;;;;;;16.06;55.15;99270.84;5051298;28;20041;-64
2022/04/03 10:27:23;;;;;;;1.63;0.80;;;;;;;16.73;52.39;99333.34;5050271;28;20462;-67
2022/04/03 10:29:49;;;;;;;2.35;1.27;;;;;;;16.43;54.67;99339.47;5029305;28;20061;-64
2022/04/03 10:32:25;;;;;;;1.75;0.80;;;;;;;15.84;54.26;99231.22;5029924;28;20561;-64
2022/04/03 10:34:54;;;;;;;3.53;1.10;;;;;;;15.67;54.58;99285.25;5031272;28;20138;-64
2022/04/03 10:37:42;;;;;;;1.95;0.80;;;;;;;15.88;53.52;99338.63;5031539;28;20033;-64
2022/04/03 10:40:16;;;;;;;2.70;1.40;;;;;;;15.45;52.22;99345.44;5031122;28;20025;-63
2022/04/03 10:42:50;;;;;;;2.45;1.60;;;;;;;16.05;52.99;99347.84;5031049;28;20037;-64
2022/04/03 10:45:18;;;;;;;1.75;1.30;;;;;;;15.48;53.04;99311.13;5029913;28;20095;-64
2022/04/03 10:47:45;;;;;;;4.38;1.77;;;;;;;15.34;55.23;99352.88;5044252;28;20025;-64
2022/04/03 10:50:12;;;;;;;3.78;1.75;;;;;;;15.77;56.99;99353.00;5049455;28;20021;-67
2022/04/03 10:52:38;;;;;;;5.63;2.70;;;;;;;15.41;57.20;99353.38;5038324;28;20096;-66
2022/04/03 10:55:35;;;;;;;4.75;2.50;;;;;;;15.38;58.67;99362.03;5046607;28;20080;-67
2022/04/03 10:58:06;;;;;;;4.07;2.25;;;;;;;14.63;59.07;99315.16;5037988;28;20071;-65
2022/04/03 11:00:32;;;;;;;4.68;2.53;;;;;;;14.68;59.49;99364.31;5031060;28;20029;-64
2022/04/03 11:02:58;;;;;;;1.80;1.08;;;;;;;14.98;61.35;99372.88;5030906;28;20099;-64
2022/04/03 11:05:26;;;;;;;3.47;2.35;;;;;;;14.72;63.59;99373.47;5029462;28;20471;-64
2022/04/03 11:07:54;;;;;;;6.53;4.30;;;;;;;14.77;63.92;99386.88;5029271;28;20030;-64
2022/04/03 11:10:57;;;;;;;4.18;2.70;;;;;;;15.16;63.03;99386.38;5030949;28;20113;-64
2022/04/03 11:13:28;;;;;;;2.40;0.90;;;;;;;14.79;62.87;99390.16;5037662;28;20120;-65
2022/04/03 11:16:02;;;;;;;3.45;1.70;;;;;;;17.23;59.17;99366.91;5050155;28;20029;-65
2022/04/03 11:18:36;;;;;;;1.67;0.90;;;;;;;15.78;59.50;99322.13;5050151;28;20041;-64
2022/04/03 11:21:24;;;;;;;2.53;0.90;;;;;;;16.21;61.35;99379.34;5050316;28;20033;-64
2022/04/03 11:24:11;;;;;;;1.60;0.90;;;;;;;15.81;59.18;99378.31;5049042;28;20474;-65
2022/04/03 11:26:38;;;;;;;1.60;0.90;;;;;;;15.39;59.13;99325.25;5032067;28;20543;-64
2022/04/03 11:29:05;;;;;;;2.92;1.10;;;;;;;17.38;54.81;99340.19;5030529;28;20030;-67
2022/04/03 11:31:34;;;;;;;2.28;0.82;;;;;;;17.81;50.01;99328.69;5029321;28;20454;-66
2022/04/03 11:34:00;;;;;;;2.10;1.02;;;;;;;16.82;51.81;99363.56;5030552;28;20049;-67
2022/04/03 11:36:29;;;;;;;4.60;1.50;;;;;;;15.97;52.38;99258.56;5030095;28;20052;-66
2022/04/03 11:38:55;;;;;;;2.05;1.23;;;;;;;16.49;52.22;99363.94;5030250;28;20415;-65
2022/04/03 11:41:31;;;;;;;1.70;0.90;;;;;;;15.56;52.32;99308.94;5030156;28;20060;-65
2022/04/03 11:44:11;;;;;;;1.70;1.30;;;;;;;15.78;53.56;99313.63;5044689;28;20052;-66
2022/04/03 11:46:45;;;;;;;2.10;1.20;;;;;;;15.28;52.71;99309.69;5050127;28;20033;-65
2022/04/03 11:49:16;;;;;;;4.22;1.70;;;;;;;15.51;53.02;99362.16;5049804;28;20035;-65
2022/04/03 11:51:43;;;;;;;3.13;1.45;;;;;;;15.77;53.11;99325.59;5049634;28;20359;-65
2022/04/03 11:54:09;;;;;;;2.67;1.23;;;;;;;15.75;53.26;99329.19;5050119;28;20029;-66
2022/04/03 11:56:36;;;;;;;3.25;1.30;;;;;;;16.15;54.05;99379.72;5050417;28;20037;-65
2022/04/03 11:59:08;;;;;;;2.90;1.77;;;;;;;15.69;53.50;99352.63;5049863;28;20029;-65
2022/04/03 12:01:36;;;;;;;1.70;1.20;;;;;;;15.61;53.87;99351.31;5050060;28;20029;-66
2022/04/03 12:04:01;;;;;;;5.18;1.25;;;;;;;15.99;54.35;99389.22;5050140;28;20126;-66
2022/04/03 12:06:30;;;;;;;3.40;1.50;;;;;;;15.54;54.01;99341.50;5049478;28;20048;-66
2022/04/03 12:08:56;;;;;;;4.07;1.50;;;;;;;14.96;56.20;99332.91;5049977;28;20048;-66
2022/04/03 12:11:27;;;;;;;2.25;1.40;;;;;;;15.40;56.72;99401.19;5049841;28;20029;-67
2022/04/03 12:14:01;;;;;;;2.80;1.67;;;;;;;15.41;56.83;99394.34;5049773;28;20060;-66
2022/04/03 12:16:29;;;;;;;2.85;1.67;;;;;;;14.98;55.80;99388.25;5081737;28;20040;-66
2022/04/03 12:19:02;;;;;;;4.15;2.00;;;;;;;15.30;56.79;99392.38;5048840;28;20029;-66
2022/04/03 12:21:42;;;;;;;3.70;2.28;;;;;;;14.66;56.99;99327.75;5051353;28;20029;-65
2022/04/03 12:24:14;;;;;;;1.40;0.90;;;;;;;14.96;56.66;99382.38;5051688;28;20530;-67
2022/04/03 12:26:54;;;;;;;2.10;1.00;;;;;;;14.85;55.59;99294.31;5052820;28;20574;-67
2022/04/03 12:29:22;;;;;;;3.03;1.48;;;;;;;15.35;55.66;99384.44;5051415;28;20040;-65
2022/04/03 12:32:04;;;;;;;2.35;1.10;;;;;;;15.35;55.10;99367.31;5051359;28;20094;-65
2022/04/03 12:34:32;;;;;;;2.80;1.60;;;;;;;15.21;54.98;99372.41;5053062;28;20499;-66
2022/04/03 12:36:59;;;;;;;3.05;1.95;;;;;;;15.36;54.38;99325.44;5053191;28;20029;-66
2022/04/03 12:39:41;;;;;;;2.28;1.10;;;;;;;15.90;53.61;99326.53;5051993;28;20028;-66
2022/04/03 12:42:11;;;;;;;1.63;1.08;;;;;;;16.10;54.44;99358.66;5053439;28;20120;-66
2022/04/03 12:44:48;;;;;;;4.60;2.00;;;;;;;15.68;54.47;99287.72;5052034;28;20076;-66
2022/04/03 12:47:15;;;;;;;2.72;1.35;;;;;;;15.56;54.21;99330.28;5047652;28;20035;-65
2022/04/03 12:49:45;;;;;;;2.70;1.60;;;;;;;15.92;53.51;99386.22;5045415;28;20455;-66
2022/04/03 12:52:11;;;;;;;1.65;1.00;;;;;;;15.48;52.32;99398.22;5053102;28;20025;-66
2022/04/03 12:54:41;;;;;;;2.33;1.50;;;;;;;15.53;52.35;99340.69;5052877;28;20060;-66
2022/04/03 13:00:06;;;;;;;3.15;1.73;;;;;;;15.50;52.04;99304.19;5052865;28;20040;-64
2022/04/03 13:02:37;;;;;;;5.55;1.95;;;;;;;16.09;51.46;99295.44;5052462;28;20033;-64
2022/04/03 13:05:02;;;;;;;1.27;1.10;;;;;;;16.27;52.15;99384.09;5051233;28;20453;-64
2022/04/03 13:07:28;;;;;;;2.03;1.20;;;;;;;15.69;53.28;99398.75;5052924;28;20033;-64
2022/04/03 13:09:56;;;;;;;2.88;1.75;;;;;;;16.11;54.83;99409.00;5052767;28;20032;-65
2022/04/03 13:12:31;;;;;;;3.40;1.60;;;;;;;15.93;53.55;99357.09;5054312;28;20107;-65
2022/04/03 13:14:59;;;;;;;4.60;1.38;;;;;;;15.43;54.59;99349.00;5055638;28;20036;-65
2022/04/03 13:17:26;;;;;;;2.80;1.55;;;;;;;15.50;54.42;99363.94;5055449;28;20029;-70
2022/04/03 13:19:52;;;;;;;4.38;1.80;;;;;;;15.32;55.32;99353.88;5054701;28;20447;-67
2022/04/03 13:22:17;;;;;;;2.20;1.17;;;;;;;15.40;54.36;99405.50;5050822;28;20108;-68
2022/04/03 13:24:43;;;;;;;3.70;1.60;;;;;;;14.64;54.85;99316.78;5039073;28;20034;-67
2022/04/03 13:27:08;;;;;;;2.78;1.70;;;;;;;15.56;55.55;99402.00;5039905;28;20100;-67
2022/04/03 13:29:37;;;;;;;3.08;2.13;;;;;;;14.96;55.81;99349.09;5053772;28;20028;-67
2022/04/03 13:32:04;;;;;;;2.10;1.50;;;;;;;14.90;56.55;99344.31;5039908;28;20091;-67
2022/04/03 14:31:42;;;;;;;4.88;1.40;;;;;;;15.10;58.55;99466.94;5067271;28;20412;-65
2022/04/03 14:34:08;;;;;;;4.13;1.42;;;;;;;14.87;59.18;99405.09;5067907;28;20037;-67
2022/04/03 14:36:34;;;;;;;3.25;1.42;;;;;;;15.61;59.48;99471.75;5052812;28;20025;-66
2022/04/03 14:38:59;;;;;;;2.10;1.30;;;;;;;15.38;59.27;99474.75;5047309;28;20055;-65
2022/04/03 14:41:25;;;;;;;2.65;1.70;;;;;;;16.25;58.01;99468.84;5047668;28;20514;-66
2022/04/03 14:43:50;;;;;;;5.18;2.10;;;;;;;15.85;58.92;99473.81;5047738;28;20032;-66
2022/04/03 14:46:18;;;;;;;5.18;2.15;;;;;;;15.35;58.65;99361.41;5062026;28;20025;-65
2022/04/03 14:48:43;;;;;;;5.53;4.25;;;;;;;15.54;58.50;99479.88;5052649;28;20034;-65
2022/04/03 14:51:09;;;;;;;3.72;1.65;;;;;;;15.51;58.57;99482.59;5026380;28;20025;-65
2022/04/03 14:53:34;;;;;;;4.72;2.50;;;;;;;14.73;59.74;99388.78;5026064;28;20061;-65
2022/04/03 14:56:01;;;;;;;3.55;1.60;;;;;;;15.28;59.70;99473.59;5055885;28;20075;-65
2022/04/03 14:58:27;;;;;;;3.63;2.35;;;;;;;15.22;59.70;99484.19;5045926;28;20487;-65
2022/04/03 15:00:52;;;;;;;4.25;2.25;;;;;;;14.60;59.90;99438.09;5048771;28;20025;-65
2022/04/03 15:03:18;;;;;;;3.70;2.50;;;;;;;15.10;59.90;99479.72;5051832;28;20025;-66
2022/04/03 15:05:44;;;;;;;4.45;2.25;;;;;;;15.15;60.48;99485.41;5067151;28;20492;-66
2022/04/03 15:08:09;;;;;;;5.30;2.10;;;;;;;14.30;61.43;99439.72;5064739;28;20028;-65
2022/04/03 15:10:36;;;;;;;3.92;2.58;;;;;;;14.52;61.92;99483.72;5053179;28;20044;-65
2022/04/03 15:13:01;;;;;;;4.03;2.20;;;;;;;14.55;62.60;99497.22;5064572;28;20029;-65
2022/04/03 15:15:26;;;;;;;3.97;2.85;;;;;;;14.35;63.04;99474.38;5064815;28;20498;-66
2022/04/03 15:17:52;;;;;;;4.22;2.10;;;;;;;14.67;63.45;99513.66;5046939;28;20111;-66
2022/04/03 15:20:17;;;;;;;3.00;2.45;;;;;;;14.26;63.63;99453.53;5047159;28;20472;-66
2022/04/03 15:22:44;;;;;;;3.35;2.30;;;;;;;14.45;62.51;99490.06;5047084;28;20025;-65
2022/04/03 15:25:10;;;;;;;3.60;2.42;;;;;;;14.64;61.92;99536.81;5046552;28;20029;-65
2022/04/03 15:27:35;;;;;;;5.18;2.30;;;;;;;14.14;63.22;99495.06;5045520;28;20136;-65
2022/04/03 15:30:01;;;;;;;6.05;3.20;;;;;;;14.31;63.25;99482.28;5046436;28;20499;-66
2022/04/03 15:32:27;;;;;;;3.63;2.58;;;;;;;14.15;63.77;99496.72;5059925;28;20087;-66
2022/04/03 15:34:53;;;;;;;3.50;2.70;;;;;;;13.93;64.12;99496.94;5060359;28;20052;-65
2022/04/03 15:37:21;;;;;;;3.05;2.63;;;;;;;14.21;64.97;99568.00;5046795;28;20041;-68
2022/04/03 15:39:48;;;;;;;3.70;2.60;;;;;;;14.32;65.73;99553.00;5046565;28;20037;-65
2022/04/03 15:42:14;;;;;;;3.45;2.60;;;;;;;13.77;65.11;99524.97;5036852;28;20036;-64
2022/04/03 15:44:39;;;;;;;3.13;2.70;;;;;;;13.81;65.21;99483.06;5033189;28;20045;-63
2022/04/03 15:47:05;;;;;;;3.83;2.67;;;;;;;14.06;65.84;99532.97;5033130;28;20025;-67
2022/04/03 15:49:30;;;;;;;3.35;2.58;;;;;;;14.16;65.32;99555.47;5031994;28;20029;-63
2022/04/03 15:51:56;;;;;;;3.63;2.67;;;;;;;14.77;65.13;99561.72;5044231;28;20033;-63
2022/04/03 15:54:21;;;;;;;4.68;3.38;;;;;;;14.50;65.12;99524.75;5052802;28;20102;-64
2022/04/03 15:56:47;;;;;;;5.72;3.75;;;;;;;14.49;64.29;99512.88;5051920;28;20031;-66
2022/04/03 15:59:12;;;;;;;4.65;3.40;;;;;;;14.69;64.35;99540.81;5053128;28;20470;-64
2022/04/03 16:01:40;;;;;;;4.60;3.70;;;;;;;14.84;63.58;99569.88;5035743;28;20132;-65
2022/04/03 16:04:05;;;;;;;6.85;5.07;;;;;;;14.81;63.21;99546.19;5032953;28;20029;-65
2022/04/03 16:06:31;;;;;;;5.22;4.00;;;;;;;14.71;61.38;99520.25;5032900;28;20029;-64
2022/04/03 16:08:57;;;;;;;4.57;3.35;;;;;;;14.67;61.62;99598.91;5032559;28;20470;-64
2022/04/03 16:11:22;;;;;;;6.03;4.10;;;;;;;14.58;61.09;99603.66;5031242;28;20499;-64
2022/04/03 16:13:48;;;;;;;5.22;3.72;;;;;;;14.10;62.32;99563.44;5032523;28;20036;-65
2022/04/03 16:16:13;;;;;;;5.28;3.00;;;;;;;14.31;62.60;99621.19;5032566;28;20052;-66
2022/04/03 16:18:40;;;;;;;3.53;2.45;;;;;;;14.12;62.94;99610.19;5032475;28;20427;-67
2022/04/03 16:21:05;;;;;;;2.70;2.20;;;;;;;13.79;61.69;99570.91;5032257;28;20435;-63
2022/04/03 16:23:31;;;;;;;3.58;2.42;;;;;;;14.14;62.16;99631.41;5032672;28;20033;-65
2022/04/03 16:25:58;;;;;;;5.38;3.08;;;;;;;13.71;63.48;99552.53;5032388;28;20469;-64
2022/04/03 16:28:24;;;;;;;4.03;3.60;;;;;;;14.14;64.62;99633.97;5031953;28;20029;-67
2022/04/03 16:30:50;;;;;;;4.70;3.50;;;;;;;13.93;66.00;99617.06;5045501;28;20059;-66
2022/04/03 16:33:16;;;;;;;5.43;3.22;;;;;;;14.16;66.85;99657.72;5051066;28;20029;-66
2022/04/03 16:35:42;;;;;;;9.68;5.28;;;;;;;13.87;66.67;99627.56;5052204;28;20032;-66
2022/04/03 16:38:10;;;;;;;9.68;4.88;;;;;;;13.71;69.43;99658.13;5050203;28;20025;-65
2022/04/03 16:40:36;;;;;;;7.22;4.45;;;;;;;12.94;71.70;99622.44;5046305;28;20033;-65
2022/04/03 16:43:02;;;;;;;5.10;3.83;;;;;;;13.10;75.22;99682.16;5032064;28;20037;-66
2022/04/03 16:45:28;;;;;;;6.85;4.78;;;;;;;12.73;79.39;99636.13;5032413;28;20048;-65
2022/04/03 16:47:55;;;;;;;5.50;4.70;;;;;;;12.13;83.86;99602.06;5032400;28;20478;-65
2022/04/03 16:50:21;;;;;;;5.45;4.90;;;;;;;12.70;86.36;99697.44;5031789;28;20103;-65
2022/04/03 16:52:47;;;;;;;4.45;4.00;;;;;;;11.91;92.96;99659.84;5030978;28;20026;-65
2022/04/03 16:55:12;;;;;;;4.40;3.97;;;;;;;11.96;98.36;99697.91;5030911;28;20021;-65
2022/04/03 16:57:39;;;;;;;5.10;4.38;;;;;;;12.00;100.00;99718.09;5031884;28;20471;-66
2022/04/03 17:00:06;;;;;;;8.15;4.70;;;;;;;11.90;100.00;99721.06;5032082;28;20037;-65
2022/04/03 17:02:32;;;;;;;5.70;4.95;;;;;;;11.42;100.00;99671.91;5031919;28;20492;-65
2022/04/03 17:04:57;;;;;;;6.63;5.30;;;;;;;11.94;100.00;99740.44;5031710;28;20091;-64
2022/04/03 17:07:25;;;;;;;6.97;5.28;;;;;;;11.53;100.00;99682.53;5032133;28;20035;-65
2022/04/03 17:09:51;;;;;;;6.63;5.78;;;;;;;11.70;100.00;99715.88;5031644;28;20029;-67
2022/04/03 17:12:16;;;;;;;8.70;5.95;;;;;;;11.41;100.00;99693.16;5031664;28;20037;-66
2022/04/03 17:14:42;;;;;;;6.68;6.00;;;;;;;11.31;100.00;99754.53;5031910;28;20029;-65
2022/04/03 17:17:08;;;;;;;5.97;5.38;;;;;;;11.51;100.00;99747.94;5031309;28;20511;-68
2022/04/03 17:19:34;;;;;;;5.95;5.35;;;;;;;11.38;100.00;99759.41;5030903;28;20029;-66
2022/04/03 17:21:59;;;;;;;5.93;5.28;;;;;;;11.31;100.00;99758.78;5030155;28;20098;-66
2022/04/03 17:24:25;;;;;;;6.45;5.13;;;;;;;10.89;100.00;99727.19;5030165;28;20033;-66
2022/04/03 17:26:50;;;;;;;10.07;6.32;;;;;;;11.39;100.00;99768.72;5031228;28;20018;-67
2022/04/03 17:29:16;;;;;;;7.95;6.15;;;;;;;11.11;100.00;99746.75;5031445;28;20036;-67
2022/04/03 17:31:43;;;;;;;7.40;6.30;;;;;;;11.08;100.00;99787.56;5024225;28;20037;-67
2022/04/03 17:34:10;;;;;;;7.15;5.97;;;;;;;11.35;100.00;99791.72;5011513;28;20021;-66
2022/04/03 17:36:35;;;;;;;7.45;5.70;;;;;;;11.08;100.00;99779.94;5019944;28;20041;-67
2022/04/03 17:39:08;;;;;;;6.18;5.57;;;;;;;11.44;100.00;99810.13;5039086;28;20036;-68
2022/04/03 17:41:40;;;;;;;6.60;5.60;;;;;;;11.13;100.00;99789.97;5049808;28;20441;-67
2022/04/03 17:44:06;;;;;;;6.93;5.80;;;;;;;10.82;100.00;99749.44;5049880;28;20025;-67
2022/04/03 17:46:32;;;;;;;6.93;5.75;;;;;;;10.98;100.00;99748.06;5050848;28;20033;-66
2022/04/03 17:48:58;;;;;;;7.18;6.05;;;;;;;11.31;100.00;99819.88;5051027;28;20086;-68
2022/04/03 17:51:26;;;;;;;7.20;5.85;;;;;;;10.90;100.00;99782.25;5050733;28;20123;-66
2022/04/03 17:53:52;;;;;;;7.78;6.22;;;;;;;11.04;100.00;99777.53;5050764;28;20029;-66
2022/04/03 17:56:18;;;;;;;6.95;6.00;;;;;;;11.00;100.00;99840.41;5050742;28;20513;-65
2022/04/03 17:58:43;;;;;;;8.18;6.28;;;;;;;11.02;100.00;99761.50;5051005;28;20183;-65
2022/04/03 18:01:09;;;;;;;9.27;7.07;;;;;;;11.10;100.00;99801.06;5050605;28;20029;-66
2022/04/03 18:03:34;;;;;;;7.38;6.57;;;;;;;10.92;100.00;99783.03;5050834;28;20375;-66
2022/04/03 18:05:59;;;;;;;8.25;6.15;;;;;;;11.05;100.00;99802.13;5050214;28;20151;-66
2022/04/03 18:08:25;;;;;;;7.30;6.50;;;;;;;11.47;100.00;99850.75;5042138;28;20410;-66
2022/04/03 18:11:08;;;;;;;8.68;6.88;;;;;;;10.94;100.00;99853.31;5029909;28;20083;-67
2022/04/03 18:13:35;;;;;;;7.93;6.75;;;;;;;10.97;100.00;99872.75;5030424;28;20041;-66
2022/04/03 18:16:02;;;;;;;8.43;6.80;;;;;;;11.32;100.00;99872.44;5030205;28;20480;-67
2022/04/03 18:18:27;;;;;;;7.88;6.93;;;;;;;10.89;100.00;99821.28;5030351;28;20029;-65
2022/04/03 18:20:54;;;;;;;11.57;6.70;;;;;;;11.40;100.00;99888.31;5029092;28;20021;-66
2022/04/03 18:23:19;;;;;;;9.88;7.45;;;;;;;11.06;100.00;99821.56;5030408;28;20486;-66
2022/04/03 18:25:45;;;;;;;8.73;7.25;;;;;;;11.06;100.00;99868.19;5030546;28;20037;-66
2022/04/03 18:28:10;;;;;;;9.73;7.40;;;;;;;11.15;100.00;99882.34;5030645;28;20031;-67
2022/04/03 18:30:36;;;;;;;9.77;7.80;;;;;;;11.34;100.00;99913.94;5029991;28;20041;-66
2022/04/03 18:33:02;;;;;;;8.90;7.60;;;;;;;11.28;100.00;99917.53;5029061;28;20038;-66
2022/04/03 18:35:27;;;;;;;8.88;7.35;;;;;;;10.89;100.00;99874.69;5029668;28;20017;-67
2022/04/03 18:37:53;;;;;;;9.80;7.30;;;;;;;11.23;100.00;99926.19;5029944;28;20480;-67
2022/04/03 18:40:18;;;;;;;8.38;7.47;;;;;;;11.11;100.00;99929.13;5029587;28;20498;-66
2022/04/03 18:42:45;;;;;;;8.60;7.43;;;;;;;11.13;100.00;99930.72;5029504;28;20471;-67
2022/04/03 18:45:11;;;;;;;8.68;7.30;;;;;;;11.08;100.00;99944.47;5028860;28;20056;-68
2022/04/03 18:47:37;;;;;;;8.60;7.70;;;;;;;11.15;100.00;99945.97;5029050;28;20462;-68
2022/04/03 18:50:03;;;;;;;10.60;7.53;;;;;;;11.20;100.00;99939.00;5029912;28;20471;-68
2022/04/03 18:52:29;;;;;;;9.68;7.28;;;;;;;11.42;99.24;99955.25;5029869;28;20065;-68
2022/04/03 18:54:55;;;;;;;9.55;8.10;;;;;;;10.92;100.00;99887.31;5030280;28;20055;-68
2022/04/03 18:57:20;;;;;;;10.00;9.00;;;;;;;11.17;100.00;99911.94;5030405;28;20021;-68
2022/04/03 18:59:46;;;;;;;11.38;9.18;;;;;;;11.40;100.00;99974.00;5029984;28;20033;-68
2022/04/03 19:02:13;;;;;;;9.38;8.13;;;;;;;11.71;97.29;99944.16;5029962;28;20056;-69
2022/04/03 19:04:38;;;;;;;9.05;7.10;;;;;;;11.03;100.00;99977.66;5030944;28;20059;-67
2022/04/03 19:07:03;;;;;;;11.88;8.85;;;;;;;11.05;100.00;99919.13;5038655;28;20054;-67
2022/04/03 19:09:29;;;;;;;8.50;7.60;;;;;;;11.14;100.00;99987.53;5050011;28;20024;-67
2022/04/03 19:11:59;;;;;;;9.82;8.82;;;;;;;11.19;100.00;99978.06;5049960;28;20044;-68
2022/04/03 19:14:25;;;;;;;14.13;10.77;;;;;;;11.22;100.00;99942.31;5048805;28;20532;-67
2022/04/03 19:16:52;;;;;;;28.42;17.10;;;;;;;10.93;100.00;99892.38;5051016;28;20057;-67
2022/04/03 19:19:20;;;;;;;22.52;13.00;;;;;;;10.91;100.00;99895.81;5053356;28;20510;-67
2022/04/03 19:21:45;;;;;;;13.85;11.63;;;;;;;11.22;100.00;99957.59;5053302;28;20037;-66
2022/04/03 19:24:13;;;;;;;11.35;8.50;;;;;;;11.03;100.00;100000.56;5053415;28;20028;-68
2022/04/03 19:26:39;;;;;;;9.82;8.43;;;;;;;11.07;100.00;99980.97;5053557;28;20036;-66
2022/04/03 19:29:04;;;;;;;9.02;7.97;;;;;;;10.90;100.00;99971.28;5052197;28;20033;-68
2022/04/03 19:31:29;;;;;;;13.45;10.45;;;;;;;10.53;100.00;99950.34;5053567;28;20074;-68
2022/04/03 19:33:55;;;;;;;10.93;8.38;;;;;;;10.81;100.00;99993.63;5053242;28;20040;-68
2022/04/03 19:36:22;;;;;;;9.82;8.27;;;;;;;11.17;100.00;99995.09;5052232;28;20379;-67
2022/04/03 19:38:47;;;;;;;11.77;8.90;;;;;;;11.03;100.00;100043.00;5053183;28;20037;-68
2022/04/03 19:41:13;;;;;;;11.48;9.15;;;;;;;11.00;100.00;100033.72;5053354;28;20106;-67
2022/04/03 19:43:39;;;;;;;12.23;9.52;;;;;;;10.92;100.00;100058.53;5053393;28;20461;-68
2022/04/03 19:46:04;;;;;;;12.52;9.95;;;;;;;10.65;97.91;100002.53;5053117;28;20021;-68
2022/04/03 19:48:30;;;;;;;13.88;10.27;;;;;;;10.72;96.07;100009.13;5053757;28;20020;-67
2022/04/03 19:50:55;;;;;;;13.05;10.23;;;;;;;10.87;96.74;100070.56;5053025;28;20487;-68
2022/04/03 19:53:26;;;;;;;15.35;11.68;;;;;;;10.69;96.65;100067.69;5052668;28;20028;-68
2022/04/03 19:55:51;;;;;;;16.73;11.38;;;;;;;10.77;94.57;100053.06;5053065;28;20037;-68
2022/04/03 19:58:19;;;;;;;19.30;14.10;;;;;;;10.75;93.23;100053.09;5051841;28;20025;-68
2022/04/03 20:00:47;;;;;;;17.42;12.48;;;;;;;10.76;92.69;100048.84;5052889;28;20558;-68
2022/04/03 20:03:14;;;;;;;13.40;10.10;;;;;;;10.27;91.89;100006.97;5051260;28;20033;-68
2022/04/03 20:05:39;;;;;;;13.13;10.23;;;;;;;10.03;92.92;99961.84;5052606;28;20108;-68